sensor_id;sensor_type;location;lat;lon;timestamp;P1;durP1;ratioP1;P2;durP2;ratioP2
1613;SDS011;800;48.824;9.346;2024-02-21T00:00:45;7.83;;;5.13;;
1613;SDS011;800;48.824;9.346;2024-02-21T00:03:11;10.33;;;3.90;;
1613;SDS011;800;48.824;9.346;2024-02-21T00:05:36;10.00;;;4.13;;
1613;SDS011;800;48.824;9.346;2024-02-21T00:08:02;6.60;;;4.10;;
1613;SDS011;800;48.824;9.346;2024-02-21T00:10:31;8.60;;;3.80;;
1613;SDS011;800;48.824;9.346;2024-02-21T00:12:57;14.10;;;5.20;;
1613;SDS011;800;48.824;9.346;2024-02-21T00:15:24;8.27;;;4.50;;
1613;SDS011;800;48.824;9.346;2024-02-21T00:17:50;8.17;;;4.43;;
1613;SDS011;800;48.824;9.346;2024-02-21T00:20:15;10.93;;;4.47;;
1613;SDS011;800;48.824;9.346;2024-02-21T00:22:42;6.27;;;3.97;;
1613;SDS011;800;48.824;9.346;2024-02-21T00:25:08;7.00;;;4.60;;
1613;SDS011;800;48.824;9.346;2024-02-21T00:27:33;8.27;;;4.23;;
1613;SDS011;800;48.824;9.346;2024-02-21T00:29:59;6.20;;;3.77;;
1613;SDS011;800;48.824;9.346;2024-02-21T00:32:25;13.23;;;5.23;;
1613;SDS011;800;48.824;9.346;2024-02-21T00:34:50;7.33;;;4.40;;
1613;SDS011;800;48.824;9.346;2024-02-21T00:37:16;7.07;;;4.43;;
1613;SDS011;800;48.824;9.346;2024-02-21T00:39:41;8.20;;;4.17;;
1613;SDS011;800;48.824;9.346;2024-02-21T00:42:07;5.53;;;3.77;;
1613;SDS011;800;48.824;9.346;2024-02-21T00:44:33;11.67;;;4.60;;
1613;SDS011;800;48.824;9.346;2024-02-21T00:46:58;11.07;;;4.57;;
1613;SDS011;800;48.824;9.346;2024-02-21T00:49:24;7.63;;;4.30;;
1613;SDS011;800;48.824;9.346;2024-02-21T00:51:49;7.80;;;4.93;;
1613;SDS011;800;48.824;9.346;2024-02-21T00:54:15;8.33;;;4.30;;
1613;SDS011;800;48.824;9.346;2024-02-21T00:56:41;9.40;;;4.20;;
1613;SDS011;800;48.824;9.346;2024-02-21T00:59:07;8.33;;;4.27;;
1613;SDS011;800;48.824;9.346;2024-02-21T01:01:33;13.77;;;4.23;;
1613;SDS011;800;48.824;9.346;2024-02-21T01:03:58;11.57;;;4.73;;
1613;SDS011;800;48.824;9.346;2024-02-21T01:06:25;14.30;;;4.60;;
1613;SDS011;800;48.824;9.346;2024-02-21T01:08:51;5.27;;;3.40;;
1613;SDS011;800;48.824;9.346;2024-02-21T01:11:16;6.93;;;4.30;;
1613;SDS011;800;48.824;9.346;2024-02-21T01:13:42;10.50;;;4.47;;
1613;SDS011;800;48.824;9.346;2024-02-21T01:16:08;8.60;;;4.20;;
1613;SDS011;800;48.824;9.346;2024-02-21T01:18:34;7.10;;;4.50;;
1613;SDS011;800;48.824;9.346;2024-02-21T01:21:02;6.83;;;3.47;;
1613;SDS011;800;48.824;9.346;2024-02-21T01:23:31;7.50;;;4.70;;
1613;SDS011;800;48.824;9.346;2024-02-21T01:26:00;7.53;;;3.70;;
1613;SDS011;800;48.824;9.346;2024-02-21T01:28:26;8.50;;;4.80;;
1613;SDS011;800;48.824;9.346;2024-02-21T01:30:52;6.83;;;3.60;;
1613;SDS011;800;48.824;9.346;2024-02-21T01:33:17;7.50;;;4.20;;
1613;SDS011;800;48.824;9.346;2024-02-21T01:35:44;10.80;;;3.87;;
1613;SDS011;800;48.824;9.346;2024-02-21T01:38:09;6.67;;;3.70;;
1613;SDS011;800;48.824;9.346;2024-02-21T01:40:35;11.40;;;4.60;;
1613;SDS011;800;48.824;9.346;2024-02-21T01:43:02;9.03;;;4.03;;
1613;SDS011;800;48.824;9.346;2024-02-21T01:45:28;6.13;;;4.20;;
1613;SDS011;800;48.824;9.346;2024-02-21T01:47:53;7.40;;;3.80;;
1613;SDS011;800;48.824;9.346;2024-02-21T01:50:19;11.20;;;4.20;;
1613;SDS011;800;48.824;9.346;2024-02-21T01:52:47;11.50;;;3.60;;
1613;SDS011;800;48.824;9.346;2024-02-21T01:55:15;7.80;;;4.00;;
1613;SDS011;800;48.824;9.346;2024-02-21T01:57:41;7.47;;;3.70;;
1613;SDS011;800;48.824;9.346;2024-02-21T02:00:08;7.90;;;4.03;;
1613;SDS011;800;48.824;9.346;2024-02-21T02:02:35;8.60;;;3.57;;
1613;SDS011;800;48.824;9.346;2024-02-21T02:05:02;6.63;;;3.57;;
1613;SDS011;800;48.824;9.346;2024-02-21T02:07:28;7.47;;;3.80;;
1613;SDS011;800;48.824;9.346;2024-02-21T02:09:54;8.57;;;4.00;;
1613;SDS011;800;48.824;9.346;2024-02-21T02:12:19;10.93;;;4.10;;
1613;SDS011;800;48.824;9.346;2024-02-21T02:14:46;7.00;;;4.00;;
1613;SDS011;800;48.824;9.346;2024-02-21T02:17:11;8.80;;;4.03;;
1613;SDS011;800;48.824;9.346;2024-02-21T02:19:37;4.40;;;3.33;;
1613;SDS011;800;48.824;9.346;2024-02-21T02:22:14;6.60;;;3.30;;
1613;SDS011;800;48.824;9.346;2024-02-21T02:24:42;6.20;;;3.43;;
1613;SDS011;800;48.824;9.346;2024-02-21T02:27:08;5.17;;;3.47;;
1613;SDS011;800;48.824;9.346;2024-02-21T02:29:34;6.47;;;3.80;;
1613;SDS011;800;48.824;9.346;2024-02-21T02:31:59;7.60;;;4.37;;
1613;SDS011;800;48.824;9.346;2024-02-21T02:34:25;13.70;;;4.30;;
1613;SDS011;800;48.824;9.346;2024-02-21T02:36:51;7.77;;;3.40;;
1613;SDS011;800;48.824;9.346;2024-02-21T02:39:16;4.20;;;3.50;;
1613;SDS011;800;48.824;9.346;2024-02-21T02:41:42;9.50;;;4.10;;
1613;SDS011;800;48.824;9.346;2024-02-21T02:44:07;4.50;;;3.67;;
1613;SDS011;800;48.824;9.346;2024-02-21T02:46:33;6.10;;;3.23;;
1613;SDS011;800;48.824;9.346;2024-02-21T02:48:59;10.00;;;4.70;;
1613;SDS011;800;48.824;9.346;2024-02-21T02:51:24;5.23;;;3.57;;
1613;SDS011;800;48.824;9.346;2024-02-21T02:53:50;10.43;;;4.27;;
1613;SDS011;800;48.824;9.346;2024-02-21T02:56:15;8.20;;;3.73;;
1613;SDS011;800;48.824;9.346;2024-02-21T02:58:42;10.57;;;3.67;;
1613;SDS011;800;48.824;9.346;2024-02-21T03:01:08;6.93;;;3.53;;
1613;SDS011;800;48.824;9.346;2024-02-21T03:03:33;7.43;;;3.70;;
1613;SDS011;800;48.824;9.346;2024-02-21T03:05:59;7.57;;;3.50;;
1613;SDS011;800;48.824;9.346;2024-02-21T03:08:25;9.73;;;4.00;;
1613;SDS011;800;48.824;9.346;2024-02-21T03:10:50;6.10;;;3.67;;
1613;SDS011;800;48.824;9.346;2024-02-21T03:13:16;8.80;;;3.90;;
1613;SDS011;800;48.824;9.346;2024-02-21T03:15:41;5.40;;;3.00;;
1613;SDS011;800;48.824;9.346;2024-02-21T03:18:07;6.00;;;3.43;;
1613;SDS011;800;48.824;9.346;2024-02-21T03:20:33;10.03;;;4.10;;
1613;SDS011;800;48.824;9.346;2024-02-21T03:22:58;7.77;;;3.63;;
1613;SDS011;800;48.824;9.346;2024-02-21T03:25:24;6.40;;;2.87;;
1613;SDS011;800;48.824;9.346;2024-02-21T03:27:49;8.40;;;3.50;;
1613;SDS011;800;48.824;9.346;2024-02-21T03:30:15;6.97;;;3.37;;
1613;SDS011;800;48.824;9.346;2024-02-21T03:32:41;5.57;;;3.20;;
1613;SDS011;800;48.824;9.346;2024-02-21T03:35:06;7.63;;;3.60;;
1613;SDS011;800;48.824;9.346;2024-02-21T03:37:32;9.20;;;3.53;;
1613;SDS011;800;48.824;9.346;2024-02-21T03:39:57;7.87;;;4.47;;
1613;SDS011;800;48.824;9.346;2024-02-21T03:42:23;7.83;;;3.50;;
1613;SDS011;800;48.824;9.346;2024-02-21T03:44:49;3.83;;;3.20;;
1613;SDS011;800;48.824;9.346;2024-02-21T03:47:14;7.50;;;3.47;;
1613;SDS011;800;48.824;9.346;2024-02-21T03:49:40;9.47;;;4.37;;
1613;SDS011;800;48.824;9.346;2024-02-21T03:52:05;9.67;;;4.40;;
1613;SDS011;800;48.824;9.346;2024-02-21T03:54:31;7.57;;;3.90;;
1613;SDS011;800;48.824;9.346;2024-02-21T03:56:57;14.83;;;4.60;;
1613;SDS011;800;48.824;9.346;2024-02-21T03:59:22;8.53;;;4.00;;
1613;SDS011;800;48.824;9.346;2024-02-21T04:01:51;7.10;;;4.43;;
1613;SDS011;800;48.824;9.346;2024-02-21T04:04:20;9.20;;;4.10;;
1613;SDS011;800;48.824;9.346;2024-02-21T04:06:46;8.97;;;3.83;;
1613;SDS011;800;48.824;9.346;2024-02-21T04:09:15;5.77;;;3.60;;
1613;SDS011;800;48.824;9.346;2024-02-21T04:11:40;7.73;;;4.50;;
1613;SDS011;800;48.824;9.346;2024-02-21T04:14:06;7.50;;;3.73;;
1613;SDS011;800;48.824;9.346;2024-02-21T04:16:32;5.17;;;3.50;;
1613;SDS011;800;48.824;9.346;2024-02-21T04:18:57;5.60;;;3.13;;
1613;SDS011;800;48.824;9.346;2024-02-21T04:21:23;3.70;;;2.93;;
1613;SDS011;800;48.824;9.346;2024-02-21T04:23:49;5.10;;;3.93;;
1613;SDS011;800;48.824;9.346;2024-02-21T04:26:14;8.10;;;3.83;;
1613;SDS011;800;48.824;9.346;2024-02-21T04:28:40;5.63;;;3.03;;
1613;SDS011;800;48.824;9.346;2024-02-21T04:31:05;6.33;;;3.40;;
1613;SDS011;800;48.824;9.346;2024-02-21T04:33:31;9.63;;;3.00;;
1613;SDS011;800;48.824;9.346;2024-02-21T04:35:57;7.20;;;3.03;;
1613;SDS011;800;48.824;9.346;2024-02-21T04:38:23;7.70;;;3.10;;
1613;SDS011;800;48.824;9.346;2024-02-21T04:40:49;6.37;;;3.23;;
1613;SDS011;800;48.824;9.346;2024-02-21T04:43:14;7.23;;;2.90;;
1613;SDS011;800;48.824;9.346;2024-02-21T04:45:40;5.27;;;3.27;;
1613;SDS011;800;48.824;9.346;2024-02-21T04:48:06;7.23;;;2.93;;
1613;SDS011;800;48.824;9.346;2024-02-21T04:50:31;5.83;;;2.87;;
1613;SDS011;800;48.824;9.346;2024-02-21T04:52:57;6.23;;;3.33;;
1613;SDS011;800;48.824;9.346;2024-02-21T04:55:22;5.23;;;3.40;;
1613;SDS011;800;48.824;9.346;2024-02-21T04:57:48;6.43;;;3.60;;
1613;SDS011;800;48.824;9.346;2024-02-21T05:00:14;6.43;;;3.53;;
1613;SDS011;800;48.824;9.346;2024-02-21T05:02:40;7.27;;;3.60;;
1613;SDS011;800;48.824;9.346;2024-02-21T05:05:06;3.53;;;2.90;;
1613;SDS011;800;48.824;9.346;2024-02-21T05:07:31;5.73;;;2.77;;
1613;SDS011;800;48.824;9.346;2024-02-21T05:09:57;7.30;;;3.20;;
1613;SDS011;800;48.824;9.346;2024-02-21T05:12:22;5.40;;;3.10;;
1613;SDS011;800;48.824;9.346;2024-02-21T05:14:48;7.77;;;2.77;;
1613;SDS011;800;48.824;9.346;2024-02-21T05:17:14;9.93;;;3.20;;
1613;SDS011;800;48.824;9.346;2024-02-21T05:19:40;7.27;;;2.77;;
1613;SDS011;800;48.824;9.346;2024-02-21T05:22:06;7.73;;;3.00;;
1613;SDS011;800;48.824;9.346;2024-02-21T05:24:31;6.20;;;3.03;;
1613;SDS011;800;48.824;9.346;2024-02-21T05:26:57;7.03;;;2.80;;
1613;SDS011;800;48.824;9.346;2024-02-21T05:29:22;10.03;;;3.57;;
1613;SDS011;800;48.824;9.346;2024-02-21T05:34:16;8.37;;;3.10;;
1613;SDS011;800;48.824;9.346;2024-02-21T05:36:45;5.10;;;2.93;;
1613;SDS011;800;48.824;9.346;2024-02-21T05:39:11;6.50;;;3.23;;
1613;SDS011;800;48.824;9.346;2024-02-21T05:41:38;4.40;;;3.90;;
1613;SDS011;800;48.824;9.346;2024-02-21T05:44:03;6.80;;;2.60;;
1613;SDS011;800;48.824;9.346;2024-02-21T05:46:29;6.07;;;3.10;;
1613;SDS011;800;48.824;9.346;2024-02-21T05:48:55;7.17;;;3.17;;
1613;SDS011;800;48.824;9.346;2024-02-21T05:51:20;5.80;;;3.40;;
1613;SDS011;800;48.824;9.346;2024-02-21T05:53:46;5.43;;;3.27;;
1613;SDS011;800;48.824;9.346;2024-02-21T05:56:12;6.10;;;3.00;;
1613;SDS011;800;48.824;9.346;2024-02-21T05:58:40;6.97;;;3.50;;
1613;SDS011;800;48.824;9.346;2024-02-21T06:01:07;7.97;;;3.73;;
1613;SDS011;800;48.824;9.346;2024-02-21T06:03:33;5.00;;;3.20;;
1613;SDS011;800;48.824;9.346;2024-02-21T06:06:02;6.93;;;4.00;;
1613;SDS011;800;48.824;9.346;2024-02-21T06:08:29;5.97;;;3.70;;
1613;SDS011;800;48.824;9.346;2024-02-21T06:10:55;8.87;;;3.20;;
1613;SDS011;800;48.824;9.346;2024-02-21T06:13:21;9.97;;;4.40;;
1613;SDS011;800;48.824;9.346;2024-02-21T06:15:47;7.50;;;4.10;;
1613;SDS011;800;48.824;9.346;2024-02-21T06:18:13;6.47;;;3.93;;
1613;SDS011;800;48.824;9.346;2024-02-21T06:20:38;6.57;;;3.97;;
1613;SDS011;800;48.824;9.346;2024-02-21T06:23:05;8.00;;;3.50;;
1613;SDS011;800;48.824;9.346;2024-02-21T06:25:31;4.83;;;3.53;;
1613;SDS011;800;48.824;9.346;2024-02-21T06:27:57;6.33;;;4.13;;
1613;SDS011;800;48.824;9.346;2024-02-21T06:30:22;5.67;;;3.43;;
1613;SDS011;800;48.824;9.346;2024-02-21T06:32:48;11.00;;;6.13;;
1613;SDS011;800;48.824;9.346;2024-02-21T06:35:13;7.60;;;4.20;;
1613;SDS011;800;48.824;9.346;2024-02-21T06:37:39;8.70;;;3.63;;
1613;SDS011;800;48.824;9.346;2024-02-21T06:40:05;6.30;;;3.53;;
1613;SDS011;800;48.824;9.346;2024-02-21T06:42:31;8.30;;;3.50;;
1613;SDS011;800;48.824;9.346;2024-02-21T06:44:56;7.80;;;4.50;;
1613;SDS011;800;48.824;9.346;2024-02-21T06:47:22;4.70;;;3.77;;
1613;SDS011;800;48.824;9.346;2024-02-21T06:49:48;7.00;;;3.97;;
1613;SDS011;800;48.824;9.346;2024-02-21T06:52:16;5.30;;;3.57;;
1613;SDS011;800;48.824;9.346;2024-02-21T06:54:45;4.37;;;2.93;;
1613;SDS011;800;48.824;9.346;2024-02-21T06:57:13;8.03;;;3.50;;
1613;SDS011;800;48.824;9.346;2024-02-21T06:59:42;4.73;;;3.20;;
1613;SDS011;800;48.824;9.346;2024-02-21T07:02:07;5.00;;;3.07;;
1613;SDS011;800;48.824;9.346;2024-02-21T07:04:33;4.80;;;3.20;;
1613;SDS011;800;48.824;9.346;2024-02-21T07:06:59;8.33;;;4.07;;
1613;SDS011;800;48.824;9.346;2024-02-21T07:09:25;6.67;;;3.10;;
1613;SDS011;800;48.824;9.346;2024-02-21T07:11:50;6.27;;;3.30;;
1613;SDS011;800;48.824;9.346;2024-02-21T07:14:16;6.57;;;3.33;;
1613;SDS011;800;48.824;9.346;2024-02-21T07:16:43;5.90;;;3.17;;
1613;SDS011;800;48.824;9.346;2024-02-21T07:19:08;5.07;;;3.40;;
1613;SDS011;800;48.824;9.346;2024-02-21T07:21:34;7.20;;;3.17;;
1613;SDS011;800;48.824;9.346;2024-02-21T07:23:59;7.53;;;3.47;;
1613;SDS011;800;48.824;9.346;2024-02-21T07:26:25;5.70;;;3.00;;
1613;SDS011;800;48.824;9.346;2024-02-21T07:28:50;5.60;;;3.00;;
1613;SDS011;800;48.824;9.346;2024-02-21T07:31:16;6.97;;;3.30;;
1613;SDS011;800;48.824;9.346;2024-02-21T07:33:42;6.13;;;3.30;;
1613;SDS011;800;48.824;9.346;2024-02-21T07:36:07;9.87;;;3.60;;
1613;SDS011;800;48.824;9.346;2024-02-21T07:38:35;5.33;;;3.00;;
1613;SDS011;800;48.824;9.346;2024-02-21T07:41:01;6.00;;;3.37;;
1613;SDS011;800;48.824;9.346;2024-02-21T07:43:26;7.33;;;3.40;;
1613;SDS011;800;48.824;9.346;2024-02-21T07:45:52;6.40;;;2.93;;
1613;SDS011;800;48.824;9.346;2024-02-21T07:48:21;7.63;;;3.30;;
1613;SDS011;800;48.824;9.346;2024-02-21T07:50:51;4.93;;;3.80;;
1613;SDS011;800;48.824;9.346;2024-02-21T07:53:17;8.53;;;3.80;;
1613;SDS011;800;48.824;9.346;2024-02-21T07:55:42;9.37;;;4.73;;
1613;SDS011;800;48.824;9.346;2024-02-21T07:58:08;8.87;;;3.40;;
1613;SDS011;800;48.824;9.346;2024-02-21T08:00:34;8.40;;;3.40;;
1613;SDS011;800;48.824;9.346;2024-02-21T08:02:59;5.37;;;3.40;;
1613;SDS011;800;48.824;9.346;2024-02-21T08:05:25;9.20;;;3.60;;
1613;SDS011;800;48.824;9.346;2024-02-21T08:07:50;3.77;;;3.40;;
1613;SDS011;800;48.824;9.346;2024-02-21T08:10:16;5.87;;;3.30;;
1613;SDS011;800;48.824;9.346;2024-02-21T08:12:41;6.53;;;3.67;;
1613;SDS011;800;48.824;9.346;2024-02-21T08:15:07;9.60;;;3.70;;
1613;SDS011;800;48.824;9.346;2024-02-21T08:17:35;6.70;;;4.00;;
1613;SDS011;800;48.824;9.346;2024-02-21T08:20:01;7.57;;;3.73;;
1613;SDS011;800;48.824;9.346;2024-02-21T08:22:27;5.77;;;3.20;;
1613;SDS011;800;48.824;9.346;2024-02-21T08:24:53;6.20;;;3.90;;
1613;SDS011;800;48.824;9.346;2024-02-21T08:27:19;6.30;;;3.00;;
1613;SDS011;800;48.824;9.346;2024-02-21T08:29:44;6.47;;;3.50;;
1613;SDS011;800;48.824;9.346;2024-02-21T08:32:10;7.13;;;3.40;;
1613;SDS011;800;48.824;9.346;2024-02-21T08:34:35;11.00;;;3.77;;
1613;SDS011;800;48.824;9.346;2024-02-21T08:37:01;9.73;;;3.37;;
1613;SDS011;800;48.824;9.346;2024-02-21T08:39:27;3.43;;;2.83;;
1613;SDS011;800;48.824;9.346;2024-02-21T08:41:54;6.20;;;3.27;;
1613;SDS011;800;48.824;9.346;2024-02-21T08:44:22;6.10;;;2.93;;
1613;SDS011;800;48.824;9.346;2024-02-21T08:46:50;13.77;;;3.33;;
1613;SDS011;800;48.824;9.346;2024-02-21T08:49:16;13.90;;;4.10;;
1613;SDS011;800;48.824;9.346;2024-02-21T08:51:41;6.10;;;2.97;;
1613;SDS011;800;48.824;9.346;2024-02-21T08:54:08;9.93;;;3.73;;
1613;SDS011;800;48.824;9.346;2024-02-21T08:56:33;2.90;;;2.60;;
1613;SDS011;800;48.824;9.346;2024-02-21T08:59:00;6.03;;;2.53;;
1613;SDS011;800;48.824;9.346;2024-02-21T09:01:26;6.00;;;2.73;;
1613;SDS011;800;48.824;9.346;2024-02-21T09:03:51;7.80;;;3.17;;
1613;SDS011;800;48.824;9.346;2024-02-21T09:06:18;6.23;;;2.50;;
1613;SDS011;800;48.824;9.346;2024-02-21T09:08:45;8.10;;;2.97;;
1613;SDS011;800;48.824;9.346;2024-02-21T09:11:10;5.47;;;3.03;;
1613;SDS011;800;48.824;9.346;2024-02-21T09:13:36;6.10;;;2.87;;
1613;SDS011;800;48.824;9.346;2024-02-21T09:16:02;6.90;;;3.30;;
1613;SDS011;800;48.824;9.346;2024-02-21T09:18:28;5.10;;;2.87;;
1613;SDS011;800;48.824;9.346;2024-02-21T09:20:54;5.87;;;2.43;;
1613;SDS011;800;48.824;9.346;2024-02-21T09:23:20;5.87;;;2.63;;
1613;SDS011;800;48.824;9.346;2024-02-21T09:25:45;11.27;;;3.53;;
1613;SDS011;800;48.824;9.346;2024-02-21T09:28:11;7.50;;;3.10;;
1613;SDS011;800;48.824;9.346;2024-02-21T09:30:38;2.90;;;2.47;;
1613;SDS011;800;48.824;9.346;2024-02-21T09:33:04;4.50;;;2.80;;
1613;SDS011;800;48.824;9.346;2024-02-21T09:35:30;7.83;;;2.70;;
1613;SDS011;800;48.824;9.346;2024-02-21T09:37:56;5.97;;;2.50;;
1613;SDS011;800;48.824;9.346;2024-02-21T09:40:21;5.53;;;2.50;;
1613;SDS011;800;48.824;9.346;2024-02-21T09:42:47;5.63;;;2.33;;
1613;SDS011;800;48.824;9.346;2024-02-21T09:48:04;7.33;;;3.33;;
1613;SDS011;800;48.824;9.346;2024-02-21T09:50:38;9.23;;;2.70;;
1613;SDS011;800;48.824;9.346;2024-02-21T09:53:08;4.13;;;2.30;;
1613;SDS011;800;48.824;9.346;2024-02-21T09:55:36;4.70;;;2.70;;
1613;SDS011;800;48.824;9.346;2024-02-21T09:58:05;3.80;;;2.40;;
1613;SDS011;800;48.824;9.346;2024-02-21T10:00:31;3.53;;;2.60;;
1613;SDS011;800;48.824;9.346;2024-02-21T10:02:57;4.50;;;2.60;;
1613;SDS011;800;48.824;9.346;2024-02-21T10:05:23;5.63;;;2.60;;
1613;SDS011;800;48.824;9.346;2024-02-21T10:07:50;9.50;;;2.70;;
1613;SDS011;800;48.824;9.346;2024-02-21T10:10:17;4.27;;;2.03;;
1613;SDS011;800;48.824;9.346;2024-02-21T10:12:52;5.27;;;2.40;;
1613;SDS011;800;48.824;9.346;2024-02-21T10:15:21;6.13;;;2.67;;
1613;SDS011;800;48.824;9.346;2024-02-21T10:17:48;6.50;;;2.63;;
1613;SDS011;800;48.824;9.346;2024-02-21T10:20:25;3.40;;;2.33;;
1613;SDS011;800;48.824;9.346;2024-02-21T10:23:00;4.57;;;2.33;;
1613;SDS011;800;48.824;9.346;2024-02-21T10:25:33;4.07;;;2.20;;
1613;SDS011;800;48.824;9.346;2024-02-21T10:27:59;6.60;;;2.10;;
1613;SDS011;800;48.824;9.346;2024-02-21T10:30:24;4.33;;;2.10;;
1613;SDS011;800;48.824;9.346;2024-02-21T10:32:50;4.40;;;2.43;;
1613;SDS011;800;48.824;9.346;2024-02-21T10:35:29;4.37;;;2.43;;
1613;SDS011;800;48.824;9.346;2024-02-21T10:38:01;5.50;;;2.37;;
1613;SDS011;800;48.824;9.346;2024-02-21T10:40:29;5.63;;;2.60;;
1613;SDS011;800;48.824;9.346;2024-02-21T10:42:57;7.63;;;3.27;;
1613;SDS011;800;48.824;9.346;2024-02-21T10:45:44;6.30;;;2.77;;
1613;SDS011;800;48.824;9.346;2024-02-21T10:48:11;4.30;;;2.80;;
1613;SDS011;800;48.824;9.346;2024-02-21T10:50:44;4.80;;;2.37;;
1613;SDS011;800;48.824;9.346;2024-02-21T10:53:44;5.87;;;2.70;;
1613;SDS011;800;48.824;9.346;2024-02-21T10:56:27;3.80;;;2.23;;
1613;SDS011;800;48.824;9.346;2024-02-21T10:58:55;6.80;;;2.63;;
1613;SDS011;800;48.824;9.346;2024-02-21T11:01:23;4.77;;;2.47;;
1613;SDS011;800;48.824;9.346;2024-02-21T11:03:53;4.90;;;2.33;;
1613;SDS011;800;48.824;9.346;2024-02-21T11:06:20;4.20;;;2.20;;
1613;SDS011;800;48.824;9.346;2024-02-21T11:08:47;4.80;;;3.10;;
1613;SDS011;800;48.824;9.346;2024-02-21T11:11:23;4.40;;;2.43;;
1613;SDS011;800;48.824;9.346;2024-02-21T11:13:49;5.97;;;2.13;;
1613;SDS011;800;48.824;9.346;2024-02-21T11:16:21;4.00;;;2.13;;
1613;SDS011;800;48.824;9.346;2024-02-21T11:18:48;5.30;;;2.33;;
1613;SDS011;800;48.824;9.346;2024-02-21T11:21:14;5.60;;;1.77;;
1613;SDS011;800;48.824;9.346;2024-02-21T11:23:39;4.63;;;1.60;;
1613;SDS011;800;48.824;9.346;2024-02-21T11:26:06;5.70;;;1.87;;
1613;SDS011;800;48.824;9.346;2024-02-21T11:28:33;3.40;;;1.60;;
1613;SDS011;800;48.824;9.346;2024-02-21T11:31:09;3.13;;;1.70;;
1613;SDS011;800;48.824;9.346;2024-02-21T11:33:39;4.17;;;2.10;;
1613;SDS011;800;48.824;9.346;2024-02-21T11:36:06;2.80;;;1.40;;
1613;SDS011;800;48.824;9.346;2024-02-21T11:38:32;4.40;;;1.87;;
1613;SDS011;800;48.824;9.346;2024-02-21T11:40:58;5.23;;;1.73;;
1613;SDS011;800;48.824;9.346;2024-02-21T11:43:24;4.80;;;1.70;;
1613;SDS011;800;48.824;9.346;2024-02-21T11:45:50;3.10;;;1.90;;
1613;SDS011;800;48.824;9.346;2024-02-21T11:48:16;3.83;;;1.50;;
1613;SDS011;800;48.824;9.346;2024-02-21T11:50:41;4.03;;;1.63;;
1613;SDS011;800;48.824;9.346;2024-02-21T11:53:07;4.20;;;2.57;;
1613;SDS011;800;48.824;9.346;2024-02-21T11:55:32;5.53;;;2.17;;
1613;SDS011;800;48.824;9.346;2024-02-21T11:57:59;2.60;;;1.93;;
1613;SDS011;800;48.824;9.346;2024-02-21T12:00:25;5.90;;;1.97;;
1613;SDS011;800;48.824;9.346;2024-02-21T12:02:51;5.40;;;1.90;;
1613;SDS011;800;48.824;9.346;2024-02-21T12:05:18;3.87;;;1.80;;
1613;SDS011;800;48.824;9.346;2024-02-21T12:07:44;2.70;;;1.50;;
1613;SDS011;800;48.824;9.346;2024-02-21T12:10:10;6.00;;;1.87;;
1613;SDS011;800;48.824;9.346;2024-02-21T12:12:37;3.30;;;1.70;;
1613;SDS011;800;48.824;9.346;2024-02-21T12:15:04;3.20;;;2.13;;
1613;SDS011;800;48.824;9.346;2024-02-21T12:17:30;3.50;;;1.40;;
1613;SDS011;800;48.824;9.346;2024-02-21T12:20:02;2.70;;;1.50;;
1613;SDS011;800;48.824;9.346;2024-02-21T12:22:35;3.90;;;2.07;;
1613;SDS011;800;48.824;9.346;2024-02-21T12:25:04;5.27;;;1.60;;
1613;SDS011;800;48.824;9.346;2024-02-21T12:27:40;2.57;;;1.60;;
1613;SDS011;800;48.824;9.346;2024-02-21T12:30:06;5.33;;;1.60;;
1613;SDS011;800;48.824;9.346;2024-02-21T12:32:35;2.10;;;1.37;;
1613;SDS011;800;48.824;9.346;2024-02-21T12:35:01;3.90;;;1.43;;
1613;SDS011;800;48.824;9.346;2024-02-21T12:37:27;3.77;;;1.83;;
1613;SDS011;800;48.824;9.346;2024-02-21T12:39:52;3.60;;;1.77;;
1613;SDS011;800;48.824;9.346;2024-02-21T12:42:18;4.63;;;1.63;;
1613;SDS011;800;48.824;9.346;2024-02-21T12:44:44;3.77;;;1.50;;
1613;SDS011;800;48.824;9.346;2024-02-21T12:47:10;3.13;;;1.70;;
1613;SDS011;800;48.824;9.346;2024-02-21T12:49:35;3.50;;;2.00;;
1613;SDS011;800;48.824;9.346;2024-02-21T12:52:01;1.87;;;1.30;;
1613;SDS011;800;48.824;9.346;2024-02-21T12:54:28;3.10;;;1.70;;
1613;SDS011;800;48.824;9.346;2024-02-21T12:56:55;3.10;;;1.77;;
1613;SDS011;800;48.824;9.346;2024-02-21T12:59:20;1.87;;;1.53;;
1613;SDS011;800;48.824;9.346;2024-02-21T13:01:46;3.00;;;1.90;;
1613;SDS011;800;48.824;9.346;2024-02-21T13:04:12;3.20;;;1.30;;
1613;SDS011;800;48.824;9.346;2024-02-21T13:06:37;2.60;;;1.43;;
1613;SDS011;800;48.824;9.346;2024-02-21T13:09:03;3.13;;;1.20;;
1613;SDS011;800;48.824;9.346;2024-02-21T13:11:32;2.57;;;1.30;;
1613;SDS011;800;48.824;9.346;2024-02-21T13:13:59;2.17;;;1.40;;
1613;SDS011;800;48.824;9.346;2024-02-21T13:16:24;1.60;;;1.30;;
1613;SDS011;800;48.824;9.346;2024-02-21T13:18:51;2.83;;;1.50;;
1613;SDS011;800;48.824;9.346;2024-02-21T13:21:17;1.93;;;1.17;;
1613;SDS011;800;48.824;9.346;2024-02-21T13:23:42;1.83;;;1.60;;
1613;SDS011;800;48.824;9.346;2024-02-21T13:26:09;2.50;;;2.07;;
1613;SDS011;800;48.824;9.346;2024-02-21T13:28:35;2.87;;;1.50;;
1613;SDS011;800;48.824;9.346;2024-02-21T13:31:00;3.07;;;2.60;;
1613;SDS011;800;48.824;9.346;2024-02-21T13:33:27;2.47;;;1.87;;
1613;SDS011;800;48.824;9.346;2024-02-21T13:35:53;2.13;;;1.97;;
1613;SDS011;800;48.824;9.346;2024-02-21T13:38:19;5.27;;;2.07;;
1613;SDS011;800;48.824;9.346;2024-02-21T13:40:44;3.13;;;1.77;;
1613;SDS011;800;48.824;9.346;2024-02-21T13:43:10;2.07;;;1.50;;
1613;SDS011;800;48.824;9.346;2024-02-21T13:45:36;2.40;;;1.40;;
1613;SDS011;800;48.824;9.346;2024-02-21T13:48:02;3.70;;;1.77;;
1613;SDS011;800;48.824;9.346;2024-02-21T13:50:31;2.77;;;1.37;;
1613;SDS011;800;48.824;9.346;2024-02-21T13:52:57;5.73;;;1.60;;
1613;SDS011;800;48.824;9.346;2024-02-21T13:55:22;11.50;;;1.50;;
1613;SDS011;800;48.824;9.346;2024-02-21T13:57:51;3.60;;;1.30;;
1613;SDS011;800;48.824;9.346;2024-02-21T14:00:17;3.13;;;1.93;;
1613;SDS011;800;48.824;9.346;2024-02-21T14:02:43;2.83;;;1.80;;
1613;SDS011;800;48.824;9.346;2024-02-21T14:05:09;2.00;;;1.90;;
1613;SDS011;800;48.824;9.346;2024-02-21T14:07:35;2.10;;;1.47;;
1613;SDS011;800;48.824;9.346;2024-02-21T14:10:01;2.03;;;1.30;;
1613;SDS011;800;48.824;9.346;2024-02-21T14:12:27;1.87;;;1.20;;
1613;SDS011;800;48.824;9.346;2024-02-21T14:14:53;2.87;;;1.40;;
1613;SDS011;800;48.824;9.346;2024-02-21T14:17:20;1.40;;;1.30;;
1613;SDS011;800;48.824;9.346;2024-02-21T14:19:45;4.50;;;1.50;;
1613;SDS011;800;48.824;9.346;2024-02-21T14:22:11;3.40;;;1.30;;
1613;SDS011;800;48.824;9.346;2024-02-21T14:24:36;1.83;;;1.20;;
1613;SDS011;800;48.824;9.346;2024-02-21T14:27:02;3.67;;;1.50;;
1613;SDS011;800;48.824;9.346;2024-02-21T14:29:28;2.20;;;1.93;;
1613;SDS011;800;48.824;9.346;2024-02-21T14:31:54;2.90;;;1.83;;
1613;SDS011;800;48.824;9.346;2024-02-21T14:34:19;2.37;;;1.63;;
1613;SDS011;800;48.824;9.346;2024-02-21T14:36:45;3.87;;;2.13;;
1613;SDS011;800;48.824;9.346;2024-02-21T14:39:11;2.67;;;1.20;;
1613;SDS011;800;48.824;9.346;2024-02-21T14:41:36;4.63;;;2.63;;
1613;SDS011;800;48.824;9.346;2024-02-21T14:44:02;3.20;;;1.60;;
1613;SDS011;800;48.824;9.346;2024-02-21T14:46:28;3.43;;;1.27;;
1613;SDS011;800;48.824;9.346;2024-02-21T14:48:57;2.00;;;1.30;;
1613;SDS011;800;48.824;9.346;2024-02-21T14:51:22;2.03;;;1.30;;
1613;SDS011;800;48.824;9.346;2024-02-21T14:53:48;2.50;;;1.30;;
1613;SDS011;800;48.824;9.346;2024-02-21T14:56:14;1.60;;;1.43;;
1613;SDS011;800;48.824;9.346;2024-02-21T14:58:41;1.30;;;1.20;;
1613;SDS011;800;48.824;9.346;2024-02-21T15:01:07;1.87;;;1.53;;
1613;SDS011;800;48.824;9.346;2024-02-21T15:03:33;1.87;;;1.50;;
1613;SDS011;800;48.824;9.346;2024-02-21T15:05:59;2.30;;;1.33;;
1613;SDS011;800;48.824;9.346;2024-02-21T15:08:26;2.10;;;1.37;;
1613;SDS011;800;48.824;9.346;2024-02-21T15:10:52;2.30;;;1.00;;
1613;SDS011;800;48.824;9.346;2024-02-21T15:13:18;4.30;;;1.37;;
1613;SDS011;800;48.824;9.346;2024-02-21T15:15:44;3.00;;;1.37;;
1613;SDS011;800;48.824;9.346;2024-02-21T15:18:10;2.37;;;1.40;;
1613;SDS011;800;48.824;9.346;2024-02-21T15:20:35;2.23;;;1.53;;
1613;SDS011;800;48.824;9.346;2024-02-21T15:23:02;1.40;;;1.30;;
1613;SDS011;800;48.824;9.346;2024-02-21T15:25:29;2.13;;;1.20;;
1613;SDS011;800;48.824;9.346;2024-02-21T15:27:55;2.43;;;1.30;;
1613;SDS011;800;48.824;9.346;2024-02-21T15:30:21;3.57;;;2.23;;